sensor_id;sensor_type;location;lat;lon;timestamp;temperature;humidity
38241;DHT22;24037;49.536;8.500;2022-09-16T00:01:29;14.30;99.90
38241;DHT22;24037;49.536;8.500;2022-09-16T00:03:56;14.30;99.90
38241;DHT22;24037;49.536;8.500;2022-09-16T00:06:27;14.30;99.90
38241;DHT22;24037;49.536;8.500;2022-09-16T00:08:55;14.30;99.90
38241;DHT22;24037;49.536;8.500;2022-09-16T00:11:22;14.30;99.90
38241;DHT22;24037;49.536;8.500;2022-09-16T00:13:49;14.20;99.90
38241;DHT22;24037;49.536;8.500;2022-09-16T00:16:21;14.20;99.90
38241;DHT22;24037;49.536;8.500;2022-09-16T00:18:51;14.20;99.90
38241;DHT22;24037;49.536;8.500;2022-09-16T00:21:18;14.20;99.90
38241;DHT22;24037;49.536;8.500;2022-09-16T00:23:44;14.20;99.90
38241;DHT22;24037;49.536;8.500;2022-09-16T00:26:10;14.20;99.90
38241;DHT22;24037;49.536;8.500;2022-09-16T00:28:36;14.20;99.90
38241;DHT22;24037;49.536;8.500;2022-09-16T00:31:03;14.20;99.90
38241;DHT22;24037;49.536;8.500;2022-09-16T00:33:30;14.30;99.90
38241;DHT22;24037;49.536;8.500;2022-09-16T00:36:15;14.30;99.90
38241;DHT22;24037;49.536;8.500;2022-09-16T00:38:43;14.20;99.90
38241;DHT22;24037;49.536;8.500;2022-09-16T00:41:16;14.20;99.90
38241;DHT22;24037;49.536;8.500;2022-09-16T00:43:57;14.10;99.90
38241;DHT22;24037;49.536;8.500;2022-09-16T00:46:45;14.00;99.90
38241;DHT22;24037;49.536;8.500;2022-09-16T00:49:16;14.00;99.90
38241;DHT22;24037;49.536;8.500;2022-09-16T00:51:44;14.00;99.90
38241;DHT22;24037;49.536;8.500;2022-09-16T00:54:15;14.00;99.90
38241;DHT22;24037;49.536;8.500;2022-09-16T00:56:44;14.10;99.90
38241;DHT22;24037;49.536;8.500;2022-09-16T00:59:16;14.20;99.90
38241;DHT22;24037;49.536;8.500;2022-09-16T01:01:43;14.20;99.90
38241;DHT22;24037;49.536;8.500;2022-09-16T01:07:25;14.30;99.90
38241;DHT22;24037;49.536;8.500;2022-09-16T01:09:52;14.30;99.90
38241;DHT22;24037;49.536;8.500;2022-09-16T01:12:18;14.30;99.90
38241;DHT22;24037;49.536;8.500;2022-09-16T01:14:44;14.30;99.90
38241;DHT22;24037;49.536;8.500;2022-09-16T01:36:35;14.30;99.90
38241;DHT22;24037;49.536;8.500;2022-09-16T01:39:26;14.20;99.90
38241;DHT22;24037;49.536;8.500;2022-09-16T01:45:37;14.20;99.90
38241;DHT22;24037;49.536;8.500;2022-09-16T01:48:32;14.20;99.90
38241;DHT22;24037;49.536;8.500;2022-09-16T01:51:07;14.20;99.90
38241;DHT22;24037;49.536;8.500;2022-09-16T01:56:24;14.20;99.90
38241;DHT22;24037;49.536;8.500;2022-09-16T01:59:02;14.20;99.90
38241;DHT22;24037;49.536;8.500;2022-09-16T02:01:31;14.10;99.90
38241;DHT22;24037;49.536;8.500;2022-09-16T02:04:03;14.10;99.90
38241;DHT22;24037;49.536;8.500;2022-09-16T02:06:31;14.00;99.90
38241;DHT22;24037;49.536;8.500;2022-09-16T02:09:02;14.00;99.90
38241;DHT22;24037;49.536;8.500;2022-09-16T02:11:29;13.90;99.90
38241;DHT22;24037;49.536;8.500;2022-09-16T02:14:04;13.80;99.90
38241;DHT22;24037;49.536;8.500;2022-09-16T02:16:42;13.80;99.90
38241;DHT22;24037;49.536;8.500;2022-09-16T02:19:24;13.80;99.90
38241;DHT22;24037;49.536;8.500;2022-09-16T02:21:52;13.80;99.90
38241;DHT22;24037;49.536;8.500;2022-09-16T02:24:20;13.80;99.90
38241;DHT22;24037;49.536;8.500;2022-09-16T02:26:57;13.80;99.90
38241;DHT22;24037;49.536;8.500;2022-09-16T02:29:29;13.90;99.90
38241;DHT22;24037;49.536;8.500;2022-09-16T02:32:00;13.90;99.90
38241;DHT22;24037;49.536;8.500;2022-09-16T02:34:36;13.90;99.90
38241;DHT22;24037;49.536;8.500;2022-09-16T02:37:18;13.90;99.90
38241;DHT22;24037;49.536;8.500;2022-09-16T02:39:48;13.90;99.90
38241;DHT22;24037;49.536;8.500;2022-09-16T02:42:15;13.90;99.90
38241;DHT22;24037;49.536;8.500;2022-09-16T02:44:43;13.90;99.90
38241;DHT22;24037;49.536;8.500;2022-09-16T02:47:50;13.90;99.90
38241;DHT22;24037;49.536;8.500;2022-09-16T02:50:32;13.90;99.90
38241;DHT22;24037;49.536;8.500;2022-09-16T02:53:17;13.90;99.90
38241;DHT22;24037;49.536;8.500;2022-09-16T02:55:57;13.90;99.90
38241;DHT22;24037;49.536;8.500;2022-09-16T02:58:24;14.00;99.90
38241;DHT22;24037;49.536;8.500;2022-09-16T03:00:53;14.00;99.90
38241;DHT22;24037;49.536;8.500;2022-09-16T03:03:20;14.00;99.90
38241;DHT22;24037;49.536;8.500;2022-09-16T03:06:17;14.00;99.90
38241;DHT22;24037;49.536;8.500;2022-09-16T03:08:44;14.00;99.90
38241;DHT22;24037;49.536;8.500;2022-09-16T03:11:42;14.00;99.90
38241;DHT22;24037;49.536;8.500;2022-09-16T03:18:03;14.00;99.90
38241;DHT22;24037;49.536;8.500;2022-09-16T03:26:03;14.00;99.90
38241;DHT22;24037;49.536;8.500;2022-09-16T03:29:01;13.90;99.90
38241;DHT22;24037;49.536;8.500;2022-09-16T03:31:46;14.00;99.90
38241;DHT22;24037;49.536;8.500;2022-09-16T03:34:20;14.00;99.90
38241;DHT22;24037;49.536;8.500;2022-09-16T03:37:00;13.90;99.90
38241;DHT22;24037;49.536;8.500;2022-09-16T03:39:28;14.00;99.90
38241;DHT22;24037;49.536;8.500;2022-09-16T03:42:02;13.90;99.90
38241;DHT22;24037;49.536;8.500;2022-09-16T03:44:34;13.80;99.90
38241;DHT22;24037;49.536;8.500;2022-09-16T03:47:07;13.80;99.90
38241;DHT22;24037;49.536;8.500;2022-09-16T03:49:34;13.70;99.90
38241;DHT22;24037;49.536;8.500;2022-09-16T03:52:00;13.60;99.90
38241;DHT22;24037;49.536;8.500;2022-09-16T03:54:26;13.60;99.90
38241;DHT22;24037;49.536;8.500;2022-09-16T03:56:53;13.50;99.90
38241;DHT22;24037;49.536;8.500;2022-09-16T03:59:19;13.50;99.90
38241;DHT22;24037;49.536;8.500;2022-09-16T04:01:45;13.40;99.90
38241;DHT22;24037;49.536;8.500;2022-09-16T04:04:11;13.40;99.90
38241;DHT22;24037;49.536;8.500;2022-09-16T04:06:38;13.40;99.90
38241;DHT22;24037;49.536;8.500;2022-09-16T04:09:05;13.40;99.90
38241;DHT22;24037;49.536;8.500;2022-09-16T04:11:33;13.30;99.90
38241;DHT22;24037;49.536;8.500;2022-09-16T04:14:00;13.30;99.90
38241;DHT22;24037;49.536;8.500;2022-09-16T04:16:26;13.30;99.90
38241;DHT22;24037;49.536;8.500;2022-09-16T04:18:53;13.30;99.90
38241;DHT22;24037;49.536;8.500;2022-09-16T04:21:19;13.30;99.90
38241;DHT22;24037;49.536;8.500;2022-09-16T04:23:45;13.20;99.90
38241;DHT22;24037;49.536;8.500;2022-09-16T04:26:11;13.20;99.90
38241;DHT22;24037;49.536;8.500;2022-09-16T04:28:37;13.10;99.90
38241;DHT22;24037;49.536;8.500;2022-09-16T04:31:06;13.10;99.90
38241;DHT22;24037;49.536;8.500;2022-09-16T04:33:33;13.10;99.90
38241;DHT22;24037;49.536;8.500;2022-09-16T04:36:11;13.10;99.90
38241;DHT22;24037;49.536;8.500;2022-09-16T04:38:39;13.10;99.90
38241;DHT22;24037;49.536;8.500;2022-09-16T04:41:08;13.10;99.90
38241;DHT22;24037;49.536;8.500;2022-09-16T04:43:35;13.10;99.90
38241;DHT22;24037;49.536;8.500;2022-09-16T04:46:02;13.10;99.90
38241;DHT22;24037;49.536;8.500;2022-09-16T04:48:29;13.20;99.90
38241;DHT22;24037;49.536;8.500;2022-09-16T04:51:04;13.20;99.90
38241;DHT22;24037;49.536;8.500;2022-09-16T04:53:31;13.30;99.90
38241;DHT22;24037;49.536;8.500;2022-09-16T04:56:09;13.20;99.90
38241;DHT22;24037;49.536;8.500;2022-09-16T04:58:41;13.20;99.90
38241;DHT22;24037;49.536;8.500;2022-09-16T05:01:29;13.20;99.90
38241;DHT22;24037;49.536;8.500;2022-09-16T05:03:58;13.20;99.90
38241;DHT22;24037;49.536;8.500;2022-09-16T05:06:32;13.20;99.90
38241;DHT22;24037;49.536;8.500;2022-09-16T05:08:59;13.30;99.90
38241;DHT22;24037;49.536;8.500;2022-09-16T05:11:31;13.30;99.90
38241;DHT22;24037;49.536;8.500;2022-09-16T05:14:03;13.30;99.90
38241;DHT22;24037;49.536;8.500;2022-09-16T05:16:30;13.40;99.90
38241;DHT22;24037;49.536;8.500;2022-09-16T05:18:58;13.30;99.90
38241;DHT22;24037;49.536;8.500;2022-09-16T05:21:27;13.40;99.90
38241;DHT22;24037;49.536;8.500;2022-09-16T05:23:54;13.40;99.90
38241;DHT22;24037;49.536;8.500;2022-09-16T05:26:26;13.30;99.90
38241;DHT22;24037;49.536;8.500;2022-09-16T05:28:52;13.30;99.90
38241;DHT22;24037;49.536;8.500;2022-09-16T05:31:21;13.30;99.90
38241;DHT22;24037;49.536;8.500;2022-09-16T05:34:17;13.30;99.90
38241;DHT22;24037;49.536;8.500;2022-09-16T05:36:44;13.30;99.90
38241;DHT22;24037;49.536;8.500;2022-09-16T05:39:13;13.30;99.90
38241;DHT22;24037;49.536;8.500;2022-09-16T05:41:43;13.30;99.90
38241;DHT22;24037;49.536;8.500;2022-09-16T05:44:09;13.30;99.90
38241;DHT22;24037;49.536;8.500;2022-09-16T05:46:36;13.30;99.90
38241;DHT22;24037;49.536;8.500;2022-09-16T05:49:02;13.40;99.90
38241;DHT22;24037;49.536;8.500;2022-09-16T05:51:29;13.30;99.90
38241;DHT22;24037;49.536;8.500;2022-09-16T05:53:57;13.30;99.90
38241;DHT22;24037;49.536;8.500;2022-09-16T05:56:27;13.40;99.90
38241;DHT22;24037;49.536;8.500;2022-09-16T05:58:57;13.40;99.90
38241;DHT22;24037;49.536;8.500;2022-09-16T06:01:25;13.50;99.90
38241;DHT22;24037;49.536;8.500;2022-09-16T06:03:52;13.60;99.90
38241;DHT22;24037;49.536;8.500;2022-09-16T06:06:24;13.60;99.90
38241;DHT22;24037;49.536;8.500;2022-09-16T06:08:52;13.80;99.90
38241;DHT22;24037;49.536;8.500;2022-09-16T06:11:18;13.80;99.90
38241;DHT22;24037;49.536;8.500;2022-09-16T06:13:45;13.90;99.90
38241;DHT22;24037;49.536;8.500;2022-09-16T06:16:11;13.90;99.90
38241;DHT22;24037;49.536;8.500;2022-09-16T06:18:39;14.10;99.90
38241;DHT22;24037;49.536;8.500;2022-09-16T06:21:07;14.10;99.90
38241;DHT22;24037;49.536;8.500;2022-09-16T06:23:35;14.20;99.90
38241;DHT22;24037;49.536;8.500;2022-09-16T06:26:07;14.20;99.90
38241;DHT22;24037;49.536;8.500;2022-09-16T06:28:34;14.30;99.90
38241;DHT22;24037;49.536;8.500;2022-09-16T06:31:11;14.30;99.90
38241;DHT22;24037;49.536;8.500;2022-09-16T06:33:37;14.40;99.90
38241;DHT22;24037;49.536;8.500;2022-09-16T06:36:05;14.50;99.90
38241;DHT22;24037;49.536;8.500;2022-09-16T06:38:32;14.50;99.90
38241;DHT22;24037;49.536;8.500;2022-09-16T06:40:59;14.60;99.90
38241;DHT22;24037;49.536;8.500;2022-09-16T06:43:26;14.60;99.90
38241;DHT22;24037;49.536;8.500;2022-09-16T06:46:01;14.70;99.90
38241;DHT22;24037;49.536;8.500;2022-09-16T06:48:28;14.60;99.90
38241;DHT22;24037;49.536;8.500;2022-09-16T06:51:05;14.70;99.90
38241;DHT22;24037;49.536;8.500;2022-09-16T06:53:32;14.70;99.90
38241;DHT22;24037;49.536;8.500;2022-09-16T06:56:03;14.70;99.90
38241;DHT22;24037;49.536;8.500;2022-09-16T06:58:34;14.60;99.90
38241;DHT22;24037;49.536;8.500;2022-09-16T07:01:08;14.70;99.90
38241;DHT22;24037;49.536;8.500;2022-09-16T07:03:43;14.70;99.90
38241;DHT22;24037;49.536;8.500;2022-09-16T07:06:10;14.70;99.90
38241;DHT22;24037;49.536;8.500;2022-09-16T07:08:38;14.80;99.90
38241;DHT22;24037;49.536;8.500;2022-09-16T07:11:13;14.80;99.90
38241;DHT22;24037;49.536;8.500;2022-09-16T07:13:40;14.80;99.90
38241;DHT22;24037;49.536;8.500;2022-09-16T07:16:12;14.90;99.90
38241;DHT22;24037;49.536;8.500;2022-09-16T07:18:39;15.00;99.90
38241;DHT22;24037;49.536;8.500;2022-09-16T07:21:11;15.00;99.90
38241;DHT22;24037;49.536;8.500;2022-09-16T07:23:38;15.10;99.90
38241;DHT22;24037;49.536;8.500;2022-09-16T07:26:13;15.20;99.90
38241;DHT22;24037;49.536;8.500;2022-09-16T07:28:41;15.40;99.90
38241;DHT22;24037;49.536;8.500;2022-09-16T07:31:09;15.30;99.90
38241;DHT22;24037;49.536;8.500;2022-09-16T07:33:38;15.30;99.90
38241;DHT22;24037;49.536;8.500;2022-09-16T07:36:06;15.30;99.90
38241;DHT22;24037;49.536;8.500;2022-09-16T07:38:32;15.30;99.90
38241;DHT22;24037;49.536;8.500;2022-09-16T07:41:06;15.20;99.90
38241;DHT22;24037;49.536;8.500;2022-09-16T07:43:33;15.10;99.90
38241;DHT22;24037;49.536;8.500;2022-09-16T07:45:59;15.20;99.90
38241;DHT22;24037;49.536;8.500;2022-09-16T07:48:28;15.20;99.90
38241;DHT22;24037;49.536;8.500;2022-09-16T07:50:57;15.30;99.90
38241;DHT22;24037;49.536;8.500;2022-09-16T07:53:25;15.40;99.90
38241;DHT22;24037;49.536;8.500;2022-09-16T07:55:52;15.30;99.90
38241;DHT22;24037;49.536;8.500;2022-09-16T07:58:19;15.30;99.90
38241;DHT22;24037;49.536;8.500;2022-09-16T08:00:47;15.40;99.90
38241;DHT22;24037;49.536;8.500;2022-09-16T08:03:14;15.50;99.90
38241;DHT22;24037;49.536;8.500;2022-09-16T08:05:41;15.60;99.90
38241;DHT22;24037;49.536;8.500;2022-09-16T08:08:07;15.50;99.90
38241;DHT22;24037;49.536;8.500;2022-09-16T08:10:33;15.50;99.90
38241;DHT22;24037;49.536;8.500;2022-09-16T08:13:03;15.50;99.90
38241;DHT22;24037;49.536;8.500;2022-09-16T08:15:29;15.30;99.90
38241;DHT22;24037;49.536;8.500;2022-09-16T08:17:56;15.40;99.90
38241;DHT22;24037;49.536;8.500;2022-09-16T08:20:22;15.50;99.90
38241;DHT22;24037;49.536;8.500;2022-09-16T08:22:50;15.60;99.90
38241;DHT22;24037;49.536;8.500;2022-09-16T08:25:16;15.60;99.90
38241;DHT22;24037;49.536;8.500;2022-09-16T08:27:43;15.70;99.90
38241;DHT22;24037;49.536;8.500;2022-09-16T08:30:09;15.60;99.90
38241;DHT22;24037;49.536;8.500;2022-09-16T08:32:36;15.70;99.90
38241;DHT22;24037;49.536;8.500;2022-09-16T08:35:02;15.70;99.90
38241;DHT22;24037;49.536;8.500;2022-09-16T08:37:28;15.70;99.90
38241;DHT22;24037;49.536;8.500;2022-09-16T08:39:55;15.90;99.90
38241;DHT22;24037;49.536;8.500;2022-09-16T08:50:37;15.90;96.60
38241;DHT22;24037;49.536;8.500;2022-09-16T08:53:11;16.00;98.30
38241;DHT22;24037;49.536;8.500;2022-09-16T08:55:45;16.20;98.50
38241;DHT22;24037;49.536;8.500;2022-09-16T08:58:22;16.60;95.90
38241;DHT22;24037;49.536;8.500;2022-09-16T09:00:53;17.40;94.90
38241;DHT22;24037;49.536;8.500;2022-09-16T09:03:39;17.70;90.60
38241;DHT22;24037;49.536;8.500;2022-09-16T09:25:52;16.70;87.60
38241;DHT22;24037;49.536;8.500;2022-09-16T09:39:16;16.40;88.70
38241;DHT22;24037;49.536;8.500;2022-09-16T09:47:45;16.50;90.20
38241;DHT22;24037;49.536;8.500;2022-09-16T09:50:27;16.50;90.20
38241;DHT22;24037;49.536;8.500;2022-09-16T09:55:39;16.90;82.20
38241;DHT22;24037;49.536;8.500;2022-09-16T10:00:44;16.70;79.10
38241;DHT22;24037;49.536;8.500;2022-09-16T10:03:13;17.20;75.10
38241;DHT22;24037;49.536;8.500;2022-09-16T10:05:42;17.80;76.50
38241;DHT22;24037;49.536;8.500;2022-09-16T10:08:28;18.10;71.80
38241;DHT22;24037;49.536;8.500;2022-09-16T10:10:59;18.00;69.80
38241;DHT22;24037;49.536;8.500;2022-09-16T10:13:27;17.80;69.70
38241;DHT22;24037;49.536;8.500;2022-09-16T10:16:15;17.40;71.60
38241;DHT22;24037;49.536;8.500;2022-09-16T10:18:43;17.40;74.50
38241;DHT22;24037;49.536;8.500;2022-09-16T10:21:13;17.10;70.70
38241;DHT22;24037;49.536;8.500;2022-09-16T10:23:39;17.10;76.10
38241;DHT22;24037;49.536;8.500;2022-09-16T10:26:17;17.40;74.80
38241;DHT22;24037;49.536;8.500;2022-09-16T10:28:58;17.80;72.60
38241;DHT22;24037;49.536;8.500;2022-09-16T10:31:29;18.10;72.30
38241;DHT22;24037;49.536;8.500;2022-09-16T10:33:58;18.40;71.20
38241;DHT22;24037;49.536;8.500;2022-09-16T10:36:28;18.30;69.70
38241;DHT22;24037;49.536;8.500;2022-09-16T10:38:57;18.20;70.70
38241;DHT22;24037;49.536;8.500;2022-09-16T10:41:41;18.10;69.80
38241;DHT22;24037;49.536;8.500;2022-09-16T10:44:22;17.80;68.50
38241;DHT22;24037;49.536;8.500;2022-09-16T10:47:05;17.60;72.70
38241;DHT22;24037;49.536;8.500;2022-09-16T10:49:59;17.50;70.40
38241;DHT22;24037;49.536;8.500;2022-09-16T10:52:28;17.70;71.50
38241;DHT22;24037;49.536;8.500;2022-09-16T10:54:56;17.60;74.20
38241;DHT22;24037;49.536;8.500;2022-09-16T10:57:25;17.50;69.90
38241;DHT22;24037;49.536;8.500;2022-09-16T11:14:24;17.50;67.50
38241;DHT22;24037;49.536;8.500;2022-09-16T11:22:12;17.30;67.00
38241;DHT22;24037;49.536;8.500;2022-09-16T11:25:15;17.40;69.00
38241;DHT22;24037;49.536;8.500;2022-09-16T11:30:21;17.90;67.30
38241;DHT22;24037;49.536;8.500;2022-09-16T11:33:12;17.80;67.00
38241;DHT22;24037;49.536;8.500;2022-09-16T11:41:53;18.00;67.10
38241;DHT22;24037;49.536;8.500;2022-09-16T11:44:38;18.30;65.60
38241;DHT22;24037;49.536;8.500;2022-09-16T11:57:45;18.20;64.30
38241;DHT22;24037;49.536;8.500;2022-09-16T12:00:16;18.30;63.10
38241;DHT22;24037;49.536;8.500;2022-09-16T12:05:48;18.80;66.30
38241;DHT22;24037;49.536;8.500;2022-09-16T12:08:26;18.60;63.70
38241;DHT22;24037;49.536;8.500;2022-09-16T12:11:21;18.70;64.30
38241;DHT22;24037;49.536;8.500;2022-09-16T12:13:54;18.50;64.10
38241;DHT22;24037;49.536;8.500;2022-09-16T12:19:12;18.20;64.00
38241;DHT22;24037;49.536;8.500;2022-09-16T12:21:45;17.70;67.10
38241;DHT22;24037;49.536;8.500;2022-09-16T12:29:52;17.60;70.80
38241;DHT22;24037;49.536;8.500;2022-09-16T12:34:53;17.40;70.10
38241;DHT22;24037;49.536;8.500;2022-09-16T12:37:38;17.40;72.00
38241;DHT22;24037;49.536;8.500;2022-09-16T12:40:25;17.60;70.90
38241;DHT22;24037;49.536;8.500;2022-09-16T12:46:16;17.80;71.70
38241;DHT22;24037;49.536;8.500;2022-09-16T12:57:14;17.60;72.20
38241;DHT22;24037;49.536;8.500;2022-09-16T13:02:51;17.70;69.50
38241;DHT22;24037;49.536;8.500;2022-09-16T13:05:27;17.80;69.60
38241;DHT22;24037;49.536;8.500;2022-09-16T13:07:56;17.80;68.90
38241;DHT22;24037;49.536;8.500;2022-09-16T13:10:34;17.80;69.90
38241;DHT22;24037;49.536;8.500;2022-09-16T13:13:02;17.70;69.60
38241;DHT22;24037;49.536;8.500;2022-09-16T13:15:32;17.70;69.40
38241;DHT22;24037;49.536;8.500;2022-09-16T13:20:46;18.00;70.00
38241;DHT22;24037;49.536;8.500;2022-09-16T13:23:19;18.20;71.30
38241;DHT22;24037;49.536;8.500;2022-09-16T13:26:04;18.30;68.40
38241;DHT22;24037;49.536;8.500;2022-09-16T13:28:39;18.20;68.70
38241;DHT22;24037;49.536;8.500;2022-09-16T13:38:54;16.70;78.60
38241;DHT22;24037;49.536;8.500;2022-09-16T13:41:45;16.40;82.70
38241;DHT22;24037;49.536;8.500;2022-09-16T13:46:53;15.70;93.10
38241;DHT22;24037;49.536;8.500;2022-09-16T13:49:22;15.60;97.20
38241;DHT22;24037;49.536;8.500;2022-09-16T13:51:51;15.40;99.90
38241;DHT22;24037;49.536;8.500;2022-09-16T13:54:28;15.40;99.70
38241;DHT22;24037;49.536;8.500;2022-09-16T13:57:04;15.30;99.90
38241;DHT22;24037;49.536;8.500;2022-09-16T14:10:10;15.90;99.90
38241;DHT22;24037;49.536;8.500;2022-09-16T14:15:15;16.50;98.90
38241;DHT22;24037;49.536;8.500;2022-09-16T14:17:45;16.90;97.40
38241;DHT22;24037;49.536;8.500;2022-09-16T14:20:15;17.20;98.30
38241;DHT22;24037;49.536;8.500;2022-09-16T14:22:42;17.50;93.90
38241;DHT22;24037;49.536;8.500;2022-09-16T14:25:44;17.60;89.90
38241;DHT22;24037;49.536;8.500;2022-09-16T14:28:27;17.20;91.10
38241;DHT22;24037;49.536;8.500;2022-09-16T14:30:58;17.00;90.10
38241;DHT22;24037;49.536;8.500;2022-09-16T14:33:40;16.80;92.00
38241;DHT22;24037;49.536;8.500;2022-09-16T14:36:34;16.80;91.70
38241;DHT22;24037;49.536;8.500;2022-09-16T14:41:38;16.90;89.30
38241;DHT22;24037;49.536;8.500;2022-09-16T14:46:44;16.90;87.00
38241;DHT22;24037;49.536;8.500;2022-09-16T14:49:13;16.60;87.30
38241;DHT22;24037;49.536;8.500;2022-09-16T14:51:47;16.40;90.10
38241;DHT22;24037;49.536;8.500;2022-09-16T14:54:19;16.40;88.10
38241;DHT22;24037;49.536;8.500;2022-09-16T14:57:00;16.40;89.70
38241;DHT22;24037;49.536;8.500;2022-09-16T14:59:30;16.30;91.40
38241;DHT22;24037;49.536;8.500;2022-09-16T15:02:00;16.30;90.60
38241;DHT22;24037;49.536;8.500;2022-09-16T15:04:32;16.20;90.10
38241;DHT22;24037;49.536;8.500;2022-09-16T15:07:13;16.20;90.80
38241;DHT22;24037;49.536;8.500;2022-09-16T15:12:48;16.10;89.90
38241;DHT22;24037;49.536;8.500;2022-09-16T15:15:24;16.10;90.00
38241;DHT22;24037;49.536;8.500;2022-09-16T15:18:01;16.00;90.10
38241;DHT22;24037;49.536;8.500;2022-09-16T15:20:30;16.10;90.80
38241;DHT22;24037;49.536;8.500;2022-09-16T15:22:58;16.10;90.90
38241;DHT22;24037;49.536;8.500;2022-09-16T15:25:36;16.20;91.40
38241;DHT22;24037;49.536;8.500;2022-09-16T15:28:17;16.10;91.20
38241;DHT22;24037;49.536;8.500;2022-09-16T15:30:53;16.10;93.20
38241;DHT22;24037;49.536;8.500;2022-09-16T15:33:40;16.20;92.40
38241;DHT22;24037;49.536;8.500;2022-09-16T15:36:33;16.10;92.30
38241;DHT22;24037;49.536;8.500;2022-09-16T15:38:59;15.90;93.50
38241;DHT22;24037;49.536;8.500;2022-09-16T15:41:25;15.80;92.70
38241;DHT22;24037;49.536;8.500;2022-09-16T15:43:52;15.80;91.90
38241;DHT22;24037;49.536;8.500;2022-09-16T15:46:21;15.50;90.50
38241;DHT22;24037;49.536;8.500;2022-09-16T15:48:59;14.90;96.20
38241;DHT22;24037;49.536;8.500;2022-09-16T15:51:48;14.50;97.90
38241;DHT22;24037;49.536;8.500;2022-09-16T15:54:23;14.20;99.90
38241;DHT22;24037;49.536;8.500;2022-09-16T15:56:59;14.10;99.90
38241;DHT22;24037;49.536;8.500;2022-09-16T15:59:37;14.10;99.90
38241;DHT22;24037;49.536;8.500;2022-09-16T16:02:20;14.20;99.90
38241;DHT22;24037;49.536;8.500;2022-09-16T16:04:48;14.30;99.50
38241;DHT22;24037;49.536;8.500;2022-09-16T16:07:39;14.30;99.90
38241;DHT22;24037;49.536;8.500;2022-09-16T16:10:24;14.40;99.50
38241;DHT22;24037;49.536;8.500;2022-09-16T16:12:52;14.50;99.70
38241;DHT22;24037;49.536;8.500;2022-09-16T16:15:24;14.60;98.90
38241;DHT22;24037;49.536;8.500;2022-09-16T16:17:53;14.60;99.90
38241;DHT22;24037;49.536;8.500;2022-09-16T16:20:20;14.70;99.90
38241;DHT22;24037;49.536;8.500;2022-09-16T16:22:46;14.70;99.60
38241;DHT22;24037;49.536;8.500;2022-09-16T16:25:12;14.70;99.10
38241;DHT22;24037;49.536;8.500;2022-09-16T16:27:39;14.70;99.40
38241;DHT22;24037;49.536;8.500;2022-09-16T16:30:08;14.60;99.90
38241;DHT22;24037;49.536;8.500;2022-09-16T16:32:35;14.60;99.70
38241;DHT22;24037;49.536;8.500;2022-09-16T16:35:04;14.70;99.90
38241;DHT22;24037;49.536;8.500;2022-09-16T16:37:31;14.60;99.90
38241;DHT22;24037;49.536;8.500;2022-09-16T16:39:57;14.50;99.90
38241;DHT22;24037;49.536;8.500;2022-09-16T16:42:23;14.40;99.90
38241;DHT22;24037;49.536;8.500;2022-09-16T16:44:49;14.20;99.90
38241;DHT22;24037;49.536;8.500;2022-09-16T16:47:16;14.00;99.90
38241;DHT22;24037;49.536;8.500;2022-09-16T16:49:42;13.90;99.90
38241;DHT22;24037;49.536;8.500;2022-09-16T16:52:08;13.90;99.90
38241;DHT22;24037;49.536;8.500;2022-09-16T16:54:35;13.70;99.90
38241;DHT22;24037;49.536;8.500;2022-09-16T16:57:02;13.60;99.90
38241;DHT22;24037;49.536;8.500;2022-09-16T16:59:29;13.50;99.90
38241;DHT22;24037;49.536;8.500;2022-09-16T17:01:56;13.40;99.90
38241;DHT22;24037;49.536;8.500;2022-09-16T17:04:23;13.30;99.90
38241;DHT22;24037;49.536;8.500;2022-09-16T17:06:50;13.30;99.90
38241;DHT22;24037;49.536;8.500;2022-09-16T17:09:16;13.10;99.90
38241;DHT22;24037;49.536;8.500;2022-09-16T17:11:53;13.10;99.90
38241;DHT22;24037;49.536;8.500;2022-09-16T17:14:20;13.00;99.90
38241;DHT22;24037;49.536;8.500;2022-09-16T17:16:47;12.90;99.90
38241;DHT22;24037;49.536;8.500;2022-09-16T17:19:15;13.00;99.90
38241;DHT22;24037;49.536;8.500;2022-09-16T17:21:43;12.80;99.90
38241;DHT22;24037;49.536;8.500;2022-09-16T17:24:09;12.80;99.90
38241;DHT22;24037;49.536;8.500;2022-09-16T17:26:36;12.80;99.90
38241;DHT22;24037;49.536;8.500;2022-09-16T17:29:03;12.70;99.90
38241;DHT22;24037;49.536;8.500;2022-09-16T17:31:31;12.70;99.90
38241;DHT22;24037;49.536;8.500;2022-09-16T17:34:00;12.70;99.90
38241;DHT22;24037;49.536;8.500;2022-09-16T17:36:29;12.80;99.90
38241;DHT22;24037;49.536;8.500;2022-09-16T17:38:55;12.70;99.90
38241;DHT22;24037;49.536;8.500;2022-09-16T17:41:23;12.80;99.90
38241;DHT22;24037;49.536;8.500;2022-09-16T17:43:52;12.70;99.90
38241;DHT22;24037;49.536;8.500;2022-09-16T17:46:18;12.70;99.90
38241;DHT22;24037;49.536;8.500;2022-09-16T17:48:45;12.50;99.90
38241;DHT22;24037;49.536;8.500;2022-09-16T17:51:12;12.50;99.90
38241;DHT22;24037;49.536;8.500;2022-09-16T17:53:39;12.40;99.90
38241;DHT22;24037;49.536;8.500;2022-09-16T17:56:13;12.30;99.90
38241;DHT22;24037;49.536;8.500;2022-09-16T17:58:43;12.30;99.90
38241;DHT22;24037;49.536;8.500;2022-09-16T18:01:21;12.30;99.90
38241;DHT22;24037;49.536;8.500;2022-09-16T18:03:49;12.30;99.90
38241;DHT22;24037;49.536;8.500;2022-09-16T18:06:20;12.30;99.90
38241;DHT22;24037;49.536;8.500;2022-09-16T18:08:47;12.20;99.90
38241;DHT22;24037;49.536;8.500;2022-09-16T18:11:15;12.20;99.90
38241;DHT22;24037;49.536;8.500;2022-09-16T18:13:42;12.20;99.90
38241;DHT22;24037;49.536;8.500;2022-09-16T18:16:10;12.20;99.90
38241;DHT22;24037;49.536;8.500;2022-09-16T18:18:38;12.30;99.90
38241;DHT22;24037;49.536;8.500;2022-09-16T18:21:08;12.40;99.90
38241;DHT22;24037;49.536;8.500;2022-09-16T18:23:34;12.40;99.90
38241;DHT22;24037;49.536;8.500;2022-09-16T18:26:06;12.60;99.90
38241;DHT22;24037;49.536;8.500;2022-09-16T18:28:40;12.50;99.90
38241;DHT22;24037;49.536;8.500;2022-09-16T18:31:12;12.50;99.90
38241;DHT22;24037;49.536;8.500;2022-09-16T18:33:39;12.50;99.90
38241;DHT22;24037;49.536;8.500;2022-09-16T18:36:11;12.50;99.90
38241;DHT22;24037;49.536;8.500;2022-09-16T18:38:38;12.50;99.90
38241;DHT22;24037;49.536;8.500;2022-09-16T18:41:14;12.50;99.90
38241;DHT22;24037;49.536;8.500;2022-09-16T18:43:42;12.50;99.90
38241;DHT22;24037;49.536;8.500;2022-09-16T18:46:17;12.60;99.90
38241;DHT22;24037;49.536;8.500;2022-09-16T18:48:45;12.70;99.90
38241;DHT22;24037;49.536;8.500;2022-09-16T18:51:19;12.80;99.90
38241;DHT22;24037;49.536;8.500;2022-09-16T18:53:46;12.80;99.90
38241;DHT22;24037;49.536;8.500;2022-09-16T18:56:14;12.80;99.90
38241;DHT22;24037;49.536;8.500;2022-09-16T18:58:41;12.80;99.90
38241;DHT22;24037;49.536;8.500;2022-09-16T19:01:31;12.90;99.90
38241;DHT22;24037;49.536;8.500;2022-09-16T19:04:00;12.80;99.90
38241;DHT22;24037;49.536;8.500;2022-09-16T19:06:32;12.80;99.90
38241;DHT22;24037;49.536;8.500;2022-09-16T19:08:59;12.80;99.90